sensor_id;sensor_type;location;lat;lon;timestamp;pressure;altitude;pressure_sealevel;temperature
64600;BMP280;6553;48.412;9.514;2023-07-29T00:01:44;71896.84;;;22.03
64600;BMP280;6553;48.412;9.514;2023-07-29T00:04:11;71895.91;;;21.99
64600;BMP280;6553;48.412;9.514;2023-07-29T00:06:37;71895.78;;;22.02
64600;BMP280;6553;48.412;9.514;2023-07-29T00:09:03;71900.28;;;22.01
64600;BMP280;6553;48.412;9.514;2023-07-29T00:11:29;71894.72;;;22.01
64600;BMP280;6553;48.412;9.514;2023-07-29T00:13:55;71892.47;;;22.01
64600;BMP280;6553;48.412;9.514;2023-07-29T00:16:20;71892.47;;;22.01
64600;BMP280;6553;48.412;9.514;2023-07-29T00:18:49;71893.66;;;22.00
64600;BMP280;6553;48.412;9.514;2023-07-29T00:21:15;71899.19;;;22.00
64600;BMP280;6553;48.412;9.514;2023-07-29T00:23:41;71896.44;;;22.00
64600;BMP280;6553;48.412;9.514;2023-07-29T00:26:06;71895.78;;;22.02
64600;BMP280;6553;48.412;9.514;2023-07-29T00:28:32;71893.13;;;21.99
64600;BMP280;6553;48.412;9.514;2023-07-29T00:30:58;71889.16;;;22.01
64600;BMP280;6553;48.412;9.514;2023-07-29T00:33:24;71892.63;;;21.99
64600;BMP280;6553;48.412;9.514;2023-07-29T00:35:50;71897.50;;;22.01
64600;BMP280;6553;48.412;9.514;2023-07-29T00:38:16;71891.94;;;22.01
64600;BMP280;6553;48.412;9.514;2023-07-29T00:40:43;71896.44;;;22.00
64600;BMP280;6553;48.412;9.514;2023-07-29T00:43:09;71896.44;;;22.00
64600;BMP280;6553;48.412;9.514;2023-07-29T00:45:35;71897.50;;;22.01
64600;BMP280;6553;48.412;9.514;2023-07-29T00:48:02;71897.50;;;22.01
64600;BMP280;6553;48.412;9.514;2023-07-29T00:50:31;71898.16;;;21.99
64600;BMP280;6553;48.412;9.514;2023-07-29T00:52:59;71892.06;;;21.98
64600;BMP280;6553;48.412;9.514;2023-07-29T00:55:26;71892.06;;;21.98
64600;BMP280;6553;48.412;9.514;2023-07-29T00:57:52;71893.13;;;21.99
64600;BMP280;6553;48.412;9.514;2023-07-29T01:00:21;71895.91;;;21.99
64600;BMP280;6553;48.412;9.514;2023-07-29T01:02:47;71895.91;;;21.99
64600;BMP280;6553;48.412;9.514;2023-07-29T01:05:16;71891.53;;;21.98
64600;BMP280;6553;48.412;9.514;2023-07-29T01:07:48;71894.84;;;21.98
64600;BMP280;6553;48.412;9.514;2023-07-29T01:10:39;71894.44;;;21.95
64600;BMP280;6553;48.412;9.514;2023-07-29T01:13:20;71898.16;;;21.99
64600;BMP280;6553;48.412;9.514;2023-07-29T01:16:13;71888.75;;;21.98
64600;BMP280;6553;48.412;9.514;2023-07-29T01:18:43;71893.78;;;21.97
64600;BMP280;6553;48.412;9.514;2023-07-29T01:21:14;71889.84;;;21.99
64600;BMP280;6553;48.412;9.514;2023-07-29T01:23:41;71893.78;;;21.97
64600;BMP280;6553;48.412;9.514;2023-07-29T01:26:06;71891.53;;;21.98
64600;BMP280;6553;48.412;9.514;2023-07-29T01:28:33;71891.00;;;21.97
64600;BMP280;6553;48.412;9.514;2023-07-29T01:31:36;71888.22;;;21.97
64600;BMP280;6553;48.412;9.514;2023-07-29T01:34:59;71896.56;;;21.97
64600;BMP280;6553;48.412;9.514;2023-07-29T01:37:14;71901.03;;;21.96
64600;BMP280;6553;48.412;9.514;2023-07-29T01:39:41;71894.84;;;21.98
64600;BMP280;6553;48.412;9.514;2023-07-29T01:42:09;71893.25;;;21.97
64600;BMP280;6553;48.412;9.514;2023-07-29T01:44:36;71887.16;;;21.96
64600;BMP280;6553;48.412;9.514;2023-07-29T01:47:02;71894.31;;;21.98
64600;BMP280;6553;48.412;9.514;2023-07-29T01:49:27;71887.69;;;21.97
64600;BMP280;6553;48.412;9.514;2023-07-29T01:51:53;71893.25;;;21.97
64600;BMP280;6553;48.412;9.514;2023-07-29T01:54:19;71891.69;;;21.95
64600;BMP280;6553;48.412;9.514;2023-07-29T01:56:45;71886.13;;;21.95
64600;BMP280;6553;48.412;9.514;2023-07-29T01:59:11;71887.69;;;21.97
64600;BMP280;6553;48.412;9.514;2023-07-29T02:01:37;71889.38;;;21.96
64600;BMP280;6553;48.412;9.514;2023-07-29T02:04:03;71889.38;;;21.96
64600;BMP280;6553;48.412;9.514;2023-07-29T02:06:29;71889.94;;;21.96
64600;BMP280;6553;48.412;9.514;2023-07-29T02:08:55;71887.69;;;21.97
64600;BMP280;6553;48.412;9.514;2023-07-29T02:11:21;71895.47;;;21.96
64600;BMP280;6553;48.412;9.514;2023-07-29T02:13:55;71888.34;;;21.95
64600;BMP280;6553;48.412;9.514;2023-07-29T02:16:21;71890.59;;;21.94
64600;BMP280;6553;48.412;9.514;2023-07-29T02:18:48;71885.56;;;21.95
64600;BMP280;6553;48.412;9.514;2023-07-29T02:21:15;71892.72;;;21.96
64600;BMP280;6553;48.412;9.514;2023-07-29T02:23:41;71887.16;;;21.96
64600;BMP280;6553;48.412;9.514;2023-07-29T02:26:07;71887.28;;;21.94
64600;BMP280;6553;48.412;9.514;2023-07-29T02:28:33;71885.56;;;21.95
64600;BMP280;6553;48.412;9.514;2023-07-29T02:31:22;71891.69;;;21.95
64600;BMP280;6553;48.412;9.514;2023-07-29T02:33:49;71894.94;;;21.96
64600;BMP280;6553;48.412;9.514;2023-07-29T02:36:16;71892.31;;;21.93
64600;BMP280;6553;48.412;9.514;2023-07-29T02:38:43;71887.69;;;21.97
64600;BMP280;6553;48.412;9.514;2023-07-29T02:41:10;71887.28;;;21.94
64600;BMP280;6553;48.412;9.514;2023-07-29T02:43:38;71886.75;;;21.93
64600;BMP280;6553;48.412;9.514;2023-07-29T02:46:04;71889.94;;;21.96
64600;BMP280;6553;48.412;9.514;2023-07-29T02:48:30;71886.59;;;21.96
64600;BMP280;6553;48.412;9.514;2023-07-29T02:50:56;71888.47;;;21.92
64600;BMP280;6553;48.412;9.514;2023-07-29T02:53:22;71886.75;;;21.93
64600;BMP280;6553;48.412;9.514;2023-07-29T02:55:48;71887.94;;;21.92
64600;BMP280;6553;48.412;9.514;2023-07-29T02:58:14;71888.91;;;21.95
64600;BMP280;6553;48.412;9.514;2023-07-29T03:00:40;71885.56;;;21.95
64600;BMP280;6553;48.412;9.514;2023-07-29T03:03:09;71891.69;;;21.95
64600;BMP280;6553;48.412;9.514;2023-07-29T03:05:35;71891.13;;;21.95
64600;BMP280;6553;48.412;9.514;2023-07-29T03:08:01;71891.75;;;21.93
64600;BMP280;6553;48.412;9.514;2023-07-29T03:10:27;71890.59;;;21.94
64600;BMP280;6553;48.412;9.514;2023-07-29T03:12:56;71888.91;;;21.95
64600;BMP280;6553;48.412;9.514;2023-07-29T03:15:25;71890.59;;;21.94
64600;BMP280;6553;48.412;9.514;2023-07-29T03:17:52;71882.91;;;21.92
64600;BMP280;6553;48.412;9.514;2023-07-29T03:20:19;71885.03;;;21.94
64600;BMP280;6553;48.412;9.514;2023-07-29T03:22:46;71890.59;;;21.94
64600;BMP280;6553;48.412;9.514;2023-07-29T03:25:13;71890.06;;;21.94
64600;BMP280;6553;48.412;9.514;2023-07-29T03:27:39;71888.47;;;21.92
64600;BMP280;6553;48.412;9.514;2023-07-29T03:30:08;71882.91;;;21.92
64600;BMP280;6553;48.412;9.514;2023-07-29T03:32:34;71893.50;;;21.92
64600;BMP280;6553;48.412;9.514;2023-07-29T03:34:59;71882.91;;;21.92
64600;BMP280;6553;48.412;9.514;2023-07-29T03:37:25;71887.41;;;21.91
64600;BMP280;6553;48.412;9.514;2023-07-29T03:39:51;71893.38;;;21.94
64600;BMP280;6553;48.412;9.514;2023-07-29T03:42:18;71885.69;;;21.92
64600;BMP280;6553;48.412;9.514;2023-07-29T03:44:44;71888.47;;;21.92
64600;BMP280;6553;48.412;9.514;2023-07-29T03:47:09;71886.88;;;21.91
64600;BMP280;6553;48.412;9.514;2023-07-29T03:49:38;71887.94;;;21.92
64600;BMP280;6553;48.412;9.514;2023-07-29T03:52:06;71890.19;;;21.91
64600;BMP280;6553;48.412;9.514;2023-07-29T03:54:31;71885.16;;;21.92
64600;BMP280;6553;48.412;9.514;2023-07-29T03:56:57;71887.94;;;21.92
64600;BMP280;6553;48.412;9.514;2023-07-29T03:59:23;71883.56;;;21.90
64600;BMP280;6553;48.412;9.514;2023-07-29T04:01:49;71885.69;;;21.92
64600;BMP280;6553;48.412;9.514;2023-07-29T04:04:15;71890.19;;;21.91
64600;BMP280;6553;48.412;9.514;2023-07-29T04:06:41;71891.25;;;21.92
64600;BMP280;6553;48.412;9.514;2023-07-29T04:09:06;71882.38;;;21.92
64600;BMP280;6553;48.412;9.514;2023-07-29T04:11:33;71881.84;;;21.91
64600;BMP280;6553;48.412;9.514;2023-07-29T04:13:59;71882.91;;;21.92
64600;BMP280;6553;48.412;9.514;2023-07-29T04:16:25;71884.63;;;21.91
64600;BMP280;6553;48.412;9.514;2023-07-29T04:18:51;71887.94;;;21.92
64600;BMP280;6553;48.412;9.514;2023-07-29T04:21:16;71886.88;;;21.91
64600;BMP280;6553;48.412;9.514;2023-07-29T04:23:42;71883.03;;;21.90
64600;BMP280;6553;48.412;9.514;2023-07-29T04:26:08;71883.03;;;21.90
64600;BMP280;6553;48.412;9.514;2023-07-29T04:28:33;71884.75;;;21.89
64600;BMP280;6553;48.412;9.514;2023-07-29T04:30:59;71871.22;;;21.81
64600;BMP280;6553;48.412;9.514;2023-07-29T04:33:25;71885.81;;;21.90
64600;BMP280;6553;48.412;9.514;2023-07-29T04:35:51;71880.78;;;21.90
64600;BMP280;6553;48.412;9.514;2023-07-29T04:38:16;71884.09;;;21.91
64600;BMP280;6553;48.412;9.514;2023-07-29T04:40:42;71890.31;;;21.89
64600;BMP280;6553;48.412;9.514;2023-07-29T04:43:08;71883.56;;;21.90
64600;BMP280;6553;48.412;9.514;2023-07-29T04:45:34;71880.38;;;21.87
64600;BMP280;6553;48.412;9.514;2023-07-29T04:47:59;71883.03;;;21.90
64600;BMP280;6553;48.412;9.514;2023-07-29T04:50:25;71887.41;;;21.91
64600;BMP280;6553;48.412;9.514;2023-07-29T04:52:51;71877.47;;;21.90
64600;BMP280;6553;48.412;9.514;2023-07-29T04:55:18;71881.44;;;21.88
64600;BMP280;6553;48.412;9.514;2023-07-29T04:57:44;71881.44;;;21.88
64600;BMP280;6553;48.412;9.514;2023-07-29T05:00:10;71887.41;;;21.91
64600;BMP280;6553;48.412;9.514;2023-07-29T05:02:36;71885.16;;;21.92
64600;BMP280;6553;48.412;9.514;2023-07-29T05:05:02;71884.22;;;21.88
64600;BMP280;6553;48.412;9.514;2023-07-29T05:07:28;71889.78;;;21.88
64600;BMP280;6553;48.412;9.514;2023-07-29T05:09:54;71883.56;;;21.90
64600;BMP280;6553;48.412;9.514;2023-07-29T05:12:19;71881.44;;;21.88
64600;BMP280;6553;48.412;9.514;2023-07-29T05:14:45;71885.81;;;21.90
64600;BMP280;6553;48.412;9.514;2023-07-29T05:17:11;71882.50;;;21.89
64600;BMP280;6553;48.412;9.514;2023-07-29T05:19:37;71886.34;;;21.90
64600;BMP280;6553;48.412;9.514;2023-07-29T05:22:02;71881.31;;;21.91
64600;BMP280;6553;48.412;9.514;2023-07-29T05:24:28;71883.03;;;21.90
64600;BMP280;6553;48.412;9.514;2023-07-29T05:26:54;71882.63;;;21.87
64600;BMP280;6553;48.412;9.514;2023-07-29T05:29:20;71879.72;;;21.89
64600;BMP280;6553;48.412;9.514;2023-07-29T05:31:45;71886.34;;;21.90
64600;BMP280;6553;48.412;9.514;2023-07-29T05:34:11;71884.75;;;21.89
64600;BMP280;6553;48.412;9.514;2023-07-29T05:36:37;71878.78;;;21.86
64600;BMP280;6553;48.412;9.514;2023-07-29T05:39:04;71879.19;;;21.89
64600;BMP280;6553;48.412;9.514;2023-07-29T05:41:30;71888.06;;;21.89
64600;BMP280;6553;48.412;9.514;2023-07-29T05:43:56;71883.03;;;21.90
64600;BMP280;6553;48.412;9.514;2023-07-29T05:46:22;71881.44;;;21.88
64600;BMP280;6553;48.412;9.514;2023-07-29T05:48:48;71884.75;;;21.89
64600;BMP280;6553;48.412;9.514;2023-07-29T05:51:14;71884.75;;;21.89
64600;BMP280;6553;48.412;9.514;2023-07-29T05:53:40;71888.06;;;21.89
64600;BMP280;6553;48.412;9.514;2023-07-29T05:56:05;71883.56;;;21.90
64600;BMP280;6553;48.412;9.514;2023-07-29T05:58:31;71889.66;;;21.91
64600;BMP280;6553;48.412;9.514;2023-07-29T06:00:58;71882.50;;;21.89
64600;BMP280;6553;48.412;9.514;2023-07-29T06:03:24;71883.03;;;21.90
64600;BMP280;6553;48.412;9.514;2023-07-29T06:05:51;71888.06;;;21.89
64600;BMP280;6553;48.412;9.514;2023-07-29T06:08:17;71884.22;;;21.88
64600;BMP280;6553;48.412;9.514;2023-07-29T06:10:42;71885.28;;;21.89
64600;BMP280;6553;48.412;9.514;2023-07-29T06:13:08;71881.97;;;21.89
64600;BMP280;6553;48.412;9.514;2023-07-29T06:15:34;71878.13;;;21.88
64600;BMP280;6553;48.412;9.514;2023-07-29T06:17:59;71884.22;;;21.88
64600;BMP280;6553;48.412;9.514;2023-07-29T06:20:26;71879.72;;;21.89
64600;BMP280;6553;48.412;9.514;2023-07-29T06:22:52;71883.03;;;21.90
64600;BMP280;6553;48.412;9.514;2023-07-29T06:25:17;71882.50;;;21.89
64600;BMP280;6553;48.412;9.514;2023-07-29T06:27:43;71884.75;;;21.89
64600;BMP280;6553;48.412;9.514;2023-07-29T06:30:09;71886.47;;;21.88
64600;BMP280;6553;48.412;9.514;2023-07-29T06:32:35;71882.50;;;21.89
64600;BMP280;6553;48.412;9.514;2023-07-29T06:35:01;71887.00;;;21.88
64600;BMP280;6553;48.412;9.514;2023-07-29T06:37:27;71879.19;;;21.89
64600;BMP280;6553;48.412;9.514;2023-07-29T06:39:52;71886.34;;;21.90
64600;BMP280;6553;48.412;9.514;2023-07-29T06:42:18;71873.63;;;21.89
64600;BMP280;6553;48.412;9.514;2023-07-29T06:44:44;71885.81;;;21.90
64600;BMP280;6553;48.412;9.514;2023-07-29T06:47:11;71879.19;;;21.89
64600;BMP280;6553;48.412;9.514;2023-07-29T06:49:37;71885.81;;;21.90
64600;BMP280;6553;48.412;9.514;2023-07-29T06:52:03;71883.56;;;21.90
64600;BMP280;6553;48.412;9.514;2023-07-29T06:54:29;71882.50;;;21.89
64600;BMP280;6553;48.412;9.514;2023-07-29T06:56:55;71888.06;;;21.89
64600;BMP280;6553;48.412;9.514;2023-07-29T06:59:20;71890.19;;;21.91
64600;BMP280;6553;48.412;9.514;2023-07-29T07:01:46;71881.44;;;21.88
64600;BMP280;6553;48.412;9.514;2023-07-29T07:04:12;71881.97;;;21.89
64600;BMP280;6553;48.412;9.514;2023-07-29T07:06:38;71885.28;;;21.89
64600;BMP280;6553;48.412;9.514;2023-07-29T07:09:03;71885.28;;;21.89
64600;BMP280;6553;48.412;9.514;2023-07-29T07:11:29;71883.56;;;21.90
64600;BMP280;6553;48.412;9.514;2023-07-29T07:13:55;71886.34;;;21.90
64600;BMP280;6553;48.412;9.514;2023-07-29T07:16:20;71885.81;;;21.90
64600;BMP280;6553;48.412;9.514;2023-07-29T07:18:46;71880.78;;;21.90
64600;BMP280;6553;48.412;9.514;2023-07-29T07:21:12;71885.81;;;21.90
64600;BMP280;6553;48.412;9.514;2023-07-29T07:23:39;71888.59;;;21.90
64600;BMP280;6553;48.412;9.514;2023-07-29T07:26:05;71886.34;;;21.90
64600;BMP280;6553;48.412;9.514;2023-07-29T07:28:30;71883.69;;;21.88
64600;BMP280;6553;48.412;9.514;2023-07-29T07:30:56;71879.72;;;21.89
64600;BMP280;6553;48.412;9.514;2023-07-29T07:33:22;71883.03;;;21.90
64600;BMP280;6553;48.412;9.514;2023-07-29T07:35:48;71879.72;;;21.89
64600;BMP280;6553;48.412;9.514;2023-07-29T07:38:14;71881.03;;;21.85
64600;BMP280;6553;48.412;9.514;2023-07-29T07:40:39;71891.75;;;21.93
64600;BMP280;6553;48.412;9.514;2023-07-29T07:43:05;71890.59;;;21.94
64600;BMP280;6553;48.412;9.514;2023-07-29T07:45:32;71887.16;;;21.96
64600;BMP280;6553;48.412;9.514;2023-07-29T07:47:58;71889.38;;;21.96
64600;BMP280;6553;48.412;9.514;2023-07-29T07:50:24;71886.50;;;21.98
64600;BMP280;6553;48.412;9.514;2023-07-29T07:52:50;71894.84;;;21.98
64600;BMP280;6553;48.412;9.514;2023-07-29T07:55:16;71890.34;;;21.99
64600;BMP280;6553;48.412;9.514;2023-07-29T07:57:41;71891.94;;;22.01
64600;BMP280;6553;48.412;9.514;2023-07-29T08:00:08;71900.81;;;22.01
64600;BMP280;6553;48.412;9.514;2023-07-29T08:02:43;71902.91;;;22.03
64600;BMP280;6553;48.412;9.514;2023-07-29T08:05:09;71898.44;;;22.04
64600;BMP280;6553;48.412;9.514;2023-07-29T08:07:35;71897.91;;;22.04
64600;BMP280;6553;48.412;9.514;2023-07-29T08:10:01;71896.34;;;22.02
64600;BMP280;6553;48.412;9.514;2023-07-29T08:12:26;71893.56;;;22.02
64600;BMP280;6553;48.412;9.514;2023-07-29T08:14:52;71897.50;;;22.01
64600;BMP280;6553;48.412;9.514;2023-07-29T08:17:18;71893.66;;;22.00
64600;BMP280;6553;48.412;9.514;2023-07-29T08:19:43;71895.38;;;21.99
64600;BMP280;6553;48.412;9.514;2023-07-29T08:22:09;71896.44;;;22.00
64600;BMP280;6553;48.412;9.514;2023-07-29T08:24:35;71895.91;;;21.99
64600;BMP280;6553;48.412;9.514;2023-07-29T08:27:01;71894.72;;;22.01
64600;BMP280;6553;48.412;9.514;2023-07-29T08:29:26;71901.88;;;22.02
64600;BMP280;6553;48.412;9.514;2023-07-29T08:31:52;71894.19;;;22.00
64600;BMP280;6553;48.412;9.514;2023-07-29T08:34:18;71899.09;;;22.02
64600;BMP280;6553;48.412;9.514;2023-07-29T08:36:43;71900.69;;;22.04
64600;BMP280;6553;48.412;9.514;2023-07-29T08:39:09;71898.44;;;22.04
64600;BMP280;6553;48.412;9.514;2023-07-29T08:41:49;71895.13;;;22.04
64600;BMP280;6553;48.412;9.514;2023-07-29T08:44:24;71902.91;;;22.03
64600;BMP280;6553;48.412;9.514;2023-07-29T08:46:52;71906.13;;;22.06
64600;BMP280;6553;48.412;9.514;2023-07-29T08:49:20;71904.00;;;22.04
64600;BMP280;6553;48.412;9.514;2023-07-29T08:51:49;71908.91;;;22.06
64600;BMP280;6553;48.412;9.514;2023-07-29T08:54:16;71901.63;;;22.07
64600;BMP280;6553;48.412;9.514;2023-07-29T08:56:43;71902.56;;;22.11
64600;BMP280;6553;48.412;9.514;2023-07-29T08:59:10;71904.69;;;22.13
64600;BMP280;6553;48.412;9.514;2023-07-29T09:01:38;71909.19;;;22.12
64600;BMP280;6553;48.412;9.514;2023-07-29T09:04:04;71908.00;;;22.13
64600;BMP280;6553;48.412;9.514;2023-07-29T09:06:32;71917.69;;;22.20
64600;BMP280;6553;48.412;9.514;2023-07-29T09:08:59;71922.59;;;22.22
64600;BMP280;6553;48.412;9.514;2023-07-29T09:11:25;71919.81;;;22.22
64600;BMP280;6553;48.412;9.514;2023-07-29T09:13:51;71924.09;;;22.26
64600;BMP280;6553;48.412;9.514;2023-07-29T09:16:20;71927.38;;;22.26
64600;BMP280;6553;48.412;9.514;2023-07-29T09:18:50;71921.94;;;22.24
64600;BMP280;6553;48.412;9.514;2023-07-29T09:21:24;71921.81;;;22.26
64600;BMP280;6553;48.412;9.514;2023-07-29T09:23:55;71925.66;;;22.27
64600;BMP280;6553;48.412;9.514;2023-07-29T09:26:26;71921.16;;;22.28
64600;BMP280;6553;48.412;9.514;2023-07-29T09:28:58;71928.97;;;22.28
64600;BMP280;6553;48.412;9.514;2023-07-29T09:31:26;71927.81;;;22.29
64600;BMP280;6553;48.412;9.514;2023-07-29T09:34:01;71925.56;;;22.30
64600;BMP280;6553;48.412;9.514;2023-07-29T09:36:32;71928.84;;;22.30
64600;BMP280;6553;48.412;9.514;2023-07-29T09:38:58;71933.09;;;22.34
64600;BMP280;6553;48.412;9.514;2023-07-29T09:41:26;71929.91;;;22.31
64600;BMP280;6553;48.412;9.514;2023-07-29T09:44:11;71939.72;;;22.35
64600;BMP280;6553;48.412;9.514;2023-07-29T09:46:37;71929.78;;;22.34
64600;BMP280;6553;48.412;9.514;2023-07-29T09:49:07;71936.94;;;22.35
64600;BMP280;6553;48.412;9.514;2023-07-29T09:51:40;71934.16;;;22.35
64600;BMP280;6553;48.412;9.514;2023-07-29T09:54:06;71927.66;;;22.32
64600;BMP280;6553;48.412;9.514;2023-07-29T09:56:32;71930.31;;;22.34
64600;BMP280;6553;48.412;9.514;2023-07-29T09:58:58;71931.38;;;22.35
64600;BMP280;6553;48.412;9.514;2023-07-29T10:01:24;71934.84;;;22.33
64600;BMP280;6553;48.412;9.514;2023-07-29T10:03:50;71934.56;;;22.38
64600;BMP280;6553;48.412;9.514;2023-07-29T10:06:17;71946.94;;;22.47
64600;BMP280;6553;48.412;9.514;2023-07-29T10:08:44;71951.16;;;22.51
64600;BMP280;6553;48.412;9.514;2023-07-29T10:11:11;71951.28;;;22.49
64600;BMP280;6553;48.412;9.514;2023-07-29T10:13:38;71946.94;;;22.47
64600;BMP280;6553;48.412;9.514;2023-07-29T10:16:04;71948.00;;;22.48
64600;BMP280;6553;48.412;9.514;2023-07-29T10:18:33;71950.13;;;22.50
64600;BMP280;6553;48.412;9.514;2023-07-29T10:21:01;71951.59;;;22.54
64600;BMP280;6553;48.412;9.514;2023-07-29T10:23:38;71952.66;;;22.55
64600;BMP280;6553;48.412;9.514;2023-07-29T10:26:10;71955.81;;;22.58
64600;BMP280;6553;48.412;9.514;2023-07-29T10:28:41;71958.50;;;22.61
64600;BMP280;6553;48.412;9.514;2023-07-29T10:31:11;71958.91;;;22.64
64600;BMP280;6553;48.412;9.514;2023-07-29T10:33:38;71961.56;;;22.67
64600;BMP280;6553;48.412;9.514;2023-07-29T10:36:04;71968.19;;;22.68
64600;BMP280;6553;48.412;9.514;2023-07-29T10:38:31;71965.94;;;22.68
64600;BMP280;6553;48.412;9.514;2023-07-29T10:40:57;71964.34;;;22.67
64600;BMP280;6553;48.412;9.514;2023-07-29T10:43:36;71966.34;;;22.71
64600;BMP280;6553;48.412;9.514;2023-07-29T10:46:19;71975.09;;;22.74
64600;BMP280;6553;48.412;9.514;2023-07-29T10:49:01;71977.75;;;22.77
64600;BMP280;6553;48.412;9.514;2023-07-29T10:51:35;71967.81;;;22.75
64600;BMP280;6553;48.412;9.514;2023-07-29T10:54:11;71976.56;;;22.78
64600;BMP280;6553;48.412;9.514;2023-07-29T10:56:42;71974.81;;;22.79
64600;BMP280;6553;48.412;9.514;2023-07-29T11:01:40;71977.50;;;22.82
64600;BMP280;6553;48.412;9.514;2023-07-29T11:07:25;71987.97;;;22.84
64600;BMP280;6553;48.412;9.514;2023-07-29T11:10:00;71974.72;;;22.82
64600;BMP280;6553;48.412;9.514;2023-07-29T11:15:14;71964.19;;;22.69
64600;BMP280;6553;48.412;9.514;2023-07-29T11:17:59;71971.09;;;22.65
64600;BMP280;6553;48.412;9.514;2023-07-29T11:20:28;71958.50;;;22.61
64600;BMP280;6553;48.412;9.514;2023-07-29T11:22:59;71959.69;;;22.60
64600;BMP280;6553;48.412;9.514;2023-07-29T11:25:28;71954.88;;;22.55
64600;BMP280;6553;48.412;9.514;2023-07-29T11:27:58;71957.97;;;22.61
64600;BMP280;6553;48.412;9.514;2023-07-29T11:30:24;71961.16;;;22.64
64600;BMP280;6553;48.412;9.514;2023-07-29T11:32:55;71948.94;;;22.52
64600;BMP280;6553;48.412;9.514;2023-07-29T11:35:21;71947.34;;;22.50
64600;BMP280;6553;48.412;9.514;2023-07-29T11:37:51;71950.13;;;22.50
64600;BMP280;6553;48.412;9.514;2023-07-29T11:40:20;71946.25;;;22.49
64600;BMP280;6553;48.412;9.514;2023-07-29T11:42:47;71945.59;;;22.51
64600;BMP280;6553;48.412;9.514;2023-07-29T11:45:14;71949.47;;;22.52
64600;BMP280;6553;48.412;9.514;2023-07-29T11:47:40;71947.88;;;22.51
64600;BMP280;6553;48.412;9.514;2023-07-29T11:50:10;71945.72;;;22.49
64600;BMP280;6553;48.412;9.514;2023-07-29T11:52:37;71951.72;;;22.52
64600;BMP280;6553;48.412;9.514;2023-07-29T11:55:05;71944.00;;;22.50
64600;BMP280;6553;48.412;9.514;2023-07-29T11:57:35;71949.59;;;22.50
64600;BMP280;6553;48.412;9.514;2023-07-29T12:00:07;71945.22;;;22.48
64600;BMP280;6553;48.412;9.514;2023-07-29T12:02:39;71949.47;;;22.52
64600;BMP280;6553;48.412;9.514;2023-07-29T12:05:06;71949.97;;;22.53
64600;BMP280;6553;48.412;9.514;2023-07-29T12:07:33;71954.38;;;22.54
64600;BMP280;6553;48.412;9.514;2023-07-29T12:10:00;71950.53;;;22.53
64600;BMP280;6553;48.412;9.514;2023-07-29T12:12:26;71951.06;;;22.54
64600;BMP280;6553;48.412;9.514;2023-07-29T12:14:54;71952.75;;;22.53
64600;BMP280;6553;48.412;9.514;2023-07-29T12:17:20;71956.63;;;22.54
64600;BMP280;6553;48.412;9.514;2023-07-29T12:19:46;71959.41;;;22.54
64600;BMP280;6553;48.412;9.514;2023-07-29T12:22:12;71955.44;;;22.55
64600;BMP280;6553;48.412;9.514;2023-07-29T12:24:40;71955.44;;;22.55
64600;BMP280;6553;48.412;9.514;2023-07-29T12:27:11;71958.63;;;22.58
64600;BMP280;6553;48.412;9.514;2023-07-29T12:29:44;71955.44;;;22.55
64600;BMP280;6553;48.412;9.514;2023-07-29T12:32:12;71955.53;;;22.53
64600;BMP280;6553;48.412;9.514;2023-07-29T12:34:38;71957.16;;;22.54
64600;BMP280;6553;48.412;9.514;2023-07-29T12:37:06;71955.97;;;22.56
64600;BMP280;6553;48.412;9.514;2023-07-29T12:39:35;71953.44;;;22.51
64600;BMP280;6553;48.412;9.514;2023-07-29T12:42:03;71952.66;;;22.55
64600;BMP280;6553;48.412;9.514;2023-07-29T12:44:36;71958.63;;;22.58
64600;BMP280;6553;48.412;9.514;2023-07-29T12:47:05;71967.38;;;22.62
64600;BMP280;6553;48.412;9.514;2023-07-29T12:49:31;71956.75;;;22.62
64600;BMP280;6553;48.412;9.514;2023-07-29T12:51:58;71963.41;;;22.63
64600;BMP280;6553;48.412;9.514;2023-07-29T12:54:24;71961.28;;;22.61
64600;BMP280;6553;48.412;9.514;2023-07-29T12:56:51;71958.50;;;22.61
64600;BMP280;6553;48.412;9.514;2023-07-29T12:59:17;71963.00;;;22.60
64600;BMP280;6553;48.412;9.514;2023-07-29T13:01:42;71960.34;;;22.58
64600;BMP280;6553;48.412;9.514;2023-07-29T13:04:10;71961.81;;;22.62
64600;BMP280;6553;48.412;9.514;2023-07-29T13:06:37;71962.31;;;22.62
64600;BMP280;6553;48.412;9.514;2023-07-29T13:09:03;71963.41;;;22.63
64600;BMP280;6553;48.412;9.514;2023-07-29T13:11:30;71966.06;;;22.66
64600;BMP280;6553;48.412;9.514;2023-07-29T13:13:58;71968.31;;;22.65
64600;BMP280;6553;48.412;9.514;2023-07-29T13:16:24;71960.09;;;22.63
64600;BMP280;6553;48.412;9.514;2023-07-29T13:18:49;71963.41;;;22.63
64600;BMP280;6553;48.412;9.514;2023-07-29T13:21:15;71959.69;;;22.60
64600;BMP280;6553;48.412;9.514;2023-07-29T13:23:41;71968.84;;;22.66
64600;BMP280;6553;48.412;9.514;2023-07-29T13:26:07;71970.56;;;22.65
64600;BMP280;6553;48.412;9.514;2023-07-29T13:28:32;71961.16;;;22.64
64600;BMP280;6553;48.412;9.514;2023-07-29T13:30:58;71968.31;;;22.65
64600;BMP280;6553;48.412;9.514;2023-07-29T13:33:24;71965.00;;;22.65
64600;BMP280;6553;48.412;9.514;2023-07-29T13:35:49;71967.13;;;22.67
64600;BMP280;6553;48.412;9.514;2023-07-29T13:38:15;71958.91;;;22.64
64600;BMP280;6553;48.412;9.514;2023-07-29T13:40:41;71962.31;;;22.62
64600;BMP280;6553;48.412;9.514;2023-07-29T13:43:07;71965.53;;;22.65
64600;BMP280;6553;48.412;9.514;2023-07-29T13:45:34;71957.84;;;22.63
64600;BMP280;6553;48.412;9.514;2023-07-29T13:48:00;71963.41;;;22.63
64600;BMP280;6553;48.412;9.514;2023-07-29T13:50:26;71962.75;;;22.65
64600;BMP280;6553;48.412;9.514;2023-07-29T13:52:51;71964.59;;;22.62
64600;BMP280;6553;48.412;9.514;2023-07-29T13:55:17;71965.53;;;22.65
64600;BMP280;6553;48.412;9.514;2023-07-29T13:57:43;71961.81;;;22.62
64600;BMP280;6553;48.412;9.514;2023-07-29T14:00:09;71957.66;;;22.55
64600;BMP280;6553;48.412;9.514;2023-07-29T14:02:37;71965.13;;;22.62
64600;BMP280;6553;48.412;9.514;2023-07-29T14:05:03;71964.34;;;22.67
64600;BMP280;6553;48.412;9.514;2023-07-29T14:07:29;71967.13;;;22.67
64600;BMP280;6553;48.412;9.514;2023-07-29T14:09:55;71969.25;;;22.69
64600;BMP280;6553;48.412;9.514;2023-07-29T14:12:20;71963.28;;;22.66
64600;BMP280;6553;48.412;9.514;2023-07-29T14:14:46;71968.19;;;22.68
64600;BMP280;6553;48.412;9.514;2023-07-29T14:17:12;71967.66;;;22.67
64600;BMP280;6553;48.412;9.514;2023-07-29T14:19:37;71974.81;;;22.69
64600;BMP280;6553;48.412;9.514;2023-07-29T14:22:04;71971.91;;;22.71
64600;BMP280;6553;48.412;9.514;2023-07-29T14:24:29;71969.66;;;22.72
64600;BMP280;6553;48.412;9.514;2023-07-29T14:26:55;71967.53;;;22.70
64600;BMP280;6553;48.412;9.514;2023-07-29T14:29:21;71969.25;;;22.69
64600;BMP280;6553;48.412;9.514;2023-07-29T14:31:47;71968.72;;;22.68